createdAt,value
2023-11-06T00:01:03.450Z,97987.63
2023-11-06T00:03:40.477Z,97986.13
2023-11-06T00:06:09.955Z,97996.02
2023-11-06T00:08:37.858Z,97999.05
2023-11-06T00:11:06.872Z,98004.48
2023-11-06T00:13:34.773Z,98010.91
2023-11-06T00:16:07.660Z,98017.88
2023-11-06T00:18:40.914Z,98020.20
2023-11-06T00:21:12.008Z,98022.04
2023-11-06T00:23:40.225Z,98026.23
2023-11-06T00:26:13.022Z,98032.40
2023-11-06T00:28:43.238Z,98039.84
2023-11-06T00:31:11.686Z,98042.48
2023-11-06T00:33:40.699Z,98037.72
2023-11-06T00:36:24.609Z,98047.29
2023-11-06T00:38:52.821Z,98050.19
2023-11-06T00:41:20.769Z,98050.08
2023-11-06T00:43:49.016Z,98062.02
2023-11-06T00:46:16.998Z,98066.50
2023-11-06T00:48:45.010Z,98070.66
2023-11-06T00:51:12.999Z,98072.48
2023-11-06T00:53:40.974Z,98077.09
2023-11-06T00:56:09.167Z,98081.27
2023-11-06T00:58:37.143Z,98085.56
2023-11-06T01:01:06.129Z,98087.13
2023-11-06T01:03:34.125Z,98093.33
2023-11-06T01:06:03.141Z,98101.29
2023-11-06T01:08:31.171Z,98102.94
2023-11-06T01:10:59.075Z,98105.40
2023-11-06T01:13:30.304Z,98110.36
2023-11-06T01:15:58.349Z,98117.70
2023-11-06T01:18:26.376Z,98122.23
2023-11-06T01:20:54.549Z,98121.95
2023-11-06T01:23:22.718Z,98128.40
2023-11-06T01:25:51.542Z,98130.95
2023-11-06T01:28:19.974Z,98139.41
2023-11-06T01:30:47.976Z,98140.96
2023-11-06T01:33:17.245Z,98148.75
2023-11-06T01:35:45.429Z,98152.13
2023-11-06T01:38:13.378Z,98153.92
2023-11-06T01:40:41.416Z,98160.38
2023-11-06T01:43:09.841Z,98161.60
2023-11-06T01:45:38.485Z,98161.88
2023-11-06T01:48:08.451Z,98163.27
2023-11-06T01:50:37.833Z,98168.39
2023-11-06T01:53:11.723Z,98176.61
2023-11-06T01:55:43.769Z,98177.57
2023-11-06T01:58:13.269Z,98186.73
2023-11-06T02:00:41.719Z,98190.79
2023-11-06T02:03:09.821Z,98195.49
2023-11-06T02:05:39.768Z,98200.77
2023-11-06T02:08:07.807Z,98207.73
2023-11-06T02:10:36.009Z,98212.52
2023-11-06T02:13:04.042Z,98215.39
2023-11-06T02:15:32.621Z,98217.17
2023-11-06T02:18:01.046Z,98220.88
2023-11-06T02:20:29.410Z,98226.66
2023-11-06T02:23:05.308Z,98237.91
2023-11-06T02:25:33.587Z,98240.29
2023-11-06T02:28:01.597Z,98247.08
2023-11-06T02:30:29.653Z,98248.73
2023-11-06T02:32:57.932Z,98254.24
2023-11-06T02:35:25.997Z,98261.23
2023-11-06T02:37:54.454Z,98265.69
2023-11-06T02:40:22.689Z,98269.13
2023-11-06T02:42:50.655Z,98275.55
2023-11-06T02:45:18.803Z,98284.14
2023-11-06T02:47:46.731Z,98285.34
2023-11-06T02:50:15.199Z,98286.04
2023-11-06T02:52:43.599Z,98285.73
2023-11-06T02:55:12.001Z,98291.42
2023-11-06T02:57:40.010Z,98295.36
2023-11-06T03:00:12.788Z,98305.48
2023-11-06T03:02:41.543Z,98304.44
2023-11-06T03:05:10.990Z,98314.04
2023-11-06T03:07:38.925Z,98317.93
2023-11-06T03:10:07.951Z,98319.52
2023-11-06T03:12:36.067Z,98329.90
2023-11-06T03:15:04.581Z,98337.04
2023-11-06T03:17:32.646Z,98338.36
2023-11-06T03:20:00.735Z,98342.36
2023-11-06T03:22:28.687Z,98349.08
2023-11-06T03:24:56.677Z,98354.48
2023-11-06T03:27:24.582Z,98359.17
2023-11-06T03:29:52.480Z,98361.94
2023-11-06T03:32:20.380Z,98365.45
2023-11-06T03:34:48.325Z,98372.20
2023-11-06T03:37:16.491Z,98379.41
2023-11-06T03:39:44.959Z,98385.88
2023-11-06T03:42:13.732Z,98379.84
2023-11-06T03:44:41.623Z,98390.83
2023-11-06T03:47:09.753Z,98394.90
2023-11-06T03:49:37.851Z,98398.73
2023-11-06T03:52:12.058Z,98404.27
2023-11-06T03:54:40.708Z,98407.70
2023-11-06T03:57:08.927Z,98416.44
2023-11-06T03:59:36.950Z,98421.77
2023-11-06T04:02:06.279Z,98424.58
2023-11-06T04:04:34.192Z,98428.01
2023-11-06T04:07:02.047Z,98433.64
2023-11-06T04:09:29.994Z,98437.09
2023-11-06T04:11:57.813Z,98439.13
2023-11-06T04:14:25.785Z,98445.27
2023-11-06T04:16:53.824Z,98446.40
2023-11-06T04:19:21.769Z,98451.34
2023-11-06T04:21:49.690Z,98450.56
2023-11-06T04:24:17.955Z,98454.63
2023-11-06T04:26:45.836Z,98461.54
2023-11-06T04:29:13.948Z,98463.97
2023-11-06T04:31:41.953Z,98469.48
2023-11-06T04:34:09.833Z,98469.93
2023-11-06T04:36:37.794Z,98477.08
2023-11-06T04:39:06.452Z,98480.51
2023-11-06T04:41:34.368Z,98479.84
2023-11-06T04:44:02.256Z,98486.19
2023-11-06T04:46:30.270Z,98486.08
2023-11-06T04:48:58.411Z,98497.13
2023-11-06T04:51:26.956Z,98502.35
2023-11-06T04:53:54.810Z,98501.58
2023-11-06T04:56:22.674Z,98511.05
2023-11-06T04:58:50.799Z,98511.27
2023-11-06T05:01:19.616Z,98513.13
2023-11-06T05:03:47.682Z,98515.08
2023-11-06T05:06:16.256Z,98515.27
2023-11-06T05:08:44.207Z,98519.41
2023-11-06T05:11:14.118Z,98522.73
2023-11-06T05:13:43.027Z,98528.98
2023-11-06T05:16:11.407Z,98526.55
2023-11-06T05:18:39.400Z,98536.10
2023-11-06T05:21:07.547Z,98535.73
2023-11-06T05:23:35.545Z,98539.95
2023-11-06T05:26:03.864Z,98547.46
2023-11-06T05:28:31.778Z,98547.61
2023-11-06T05:30:59.700Z,98557.47
2023-11-06T05:33:27.691Z,98567.67
2023-11-06T05:35:55.731Z,98565.84
2023-11-06T05:38:23.671Z,98572.27
2023-11-06T05:40:51.644Z,98578.98
2023-11-06T05:43:19.606Z,98589.05
2023-11-06T05:45:47.664Z,98594.59
2023-11-06T05:48:15.746Z,98600.34
2023-11-06T05:50:43.813Z,98604.41
2023-11-06T05:53:11.917Z,98607.04
2023-11-06T05:55:41.763Z,98610.15
2023-11-06T05:58:09.733Z,98614.19
2023-11-06T06:00:37.601Z,98617.11
2023-11-06T06:03:05.559Z,98623.25
2023-11-06T06:05:34.544Z,98626.60
2023-11-06T06:08:03.222Z,98628.48
2023-11-06T06:10:31.204Z,98642.52
2023-11-06T06:12:59.124Z,98639.44
2023-11-06T06:15:27.478Z,98646.79
2023-11-06T06:17:55.418Z,98646.67
2023-11-06T06:20:23.408Z,98660.41
2023-11-06T06:22:52.005Z,98664.77
2023-11-06T06:25:20.424Z,98667.45
2023-11-06T06:27:48.979Z,98670.13
2023-11-06T06:30:16.992Z,98675.55
2023-11-06T06:32:45.128Z,98687.09
2023-11-06T06:35:13.535Z,98690.52
2023-11-06T06:37:42.001Z,98695.55
2023-11-06T06:40:11.623Z,98700.48
2023-11-06T06:42:39.661Z,98706.98
2023-11-06T06:45:09.015Z,98711.02
2023-11-06T06:47:37.085Z,98720.66
2023-11-06T06:50:05.829Z,98719.23
2023-11-06T06:52:33.917Z,98725.48
2023-11-06T06:55:01.956Z,98727.64
2023-11-06T06:57:30.297Z,98737.54
2023-11-06T06:59:58.367Z,98728.98
2023-11-06T07:02:26.496Z,98737.34
2023-11-06T07:04:54.655Z,98741.88
2023-11-06T07:07:23.561Z,98746.56
2023-11-06T07:09:53.685Z,98751.85
2023-11-06T07:12:21.635Z,98757.73
2023-11-06T07:14:49.591Z,98760.60
2023-11-06T07:17:18.257Z,98765.76
2023-11-06T07:19:46.266Z,98770.61
2023-11-06T07:22:14.312Z,98776.39
2023-11-06T07:24:42.283Z,98777.44
2023-11-06T07:27:10.317Z,98780.77
2023-11-06T07:29:38.286Z,98789.55
2023-11-06T07:32:06.598Z,98792.88
2023-11-06T07:34:35.356Z,98804.19
2023-11-06T07:37:03.859Z,98806.56
2023-11-06T07:39:32.780Z,98807.52
2023-11-06T07:42:00.696Z,98805.92
2023-11-06T07:44:31.231Z,98816.08
2023-11-06T07:47:00.523Z,98817.88
2023-11-06T07:49:28.953Z,98822.98
2023-11-06T07:51:56.854Z,98830.69
2023-11-06T07:54:24.826Z,98830.23
2023-11-06T07:56:54.141Z,98833.15
2023-11-06T07:59:22.066Z,98835.10
2023-11-06T08:01:50.094Z,98841.52
2023-11-06T08:04:18.021Z,98846.47
2023-11-06T08:06:45.880Z,98852.35
2023-11-06T08:09:13.949Z,98850.66
2023-11-06T08:11:43.165Z,98856.08
2023-11-06T08:14:13.330Z,98858.10
2023-11-06T08:16:44.103Z,98864.28
2023-11-06T08:19:13.774Z,98867.94
2023-11-06T08:21:41.812Z,98879.63
2023-11-06T08:24:09.899Z,98883.20
2023-11-06T08:26:40.860Z,98887.84
2023-11-06T08:29:08.932Z,98893.02
2023-11-06T08:31:36.820Z,98898.27
2023-11-06T08:34:05.297Z,98894.46
2023-11-06T08:36:33.769Z,98898.76
2023-11-06T08:39:01.727Z,98907.32
2023-11-06T08:41:29.726Z,98909.86
2023-11-06T08:44:02.077Z,98916.08
2023-11-06T08:46:30.128Z,98925.54
2023-11-06T08:48:58.049Z,98928.96
2023-11-06T08:51:26.165Z,98930.10
2023-11-06T08:53:54.492Z,98940.65
2023-11-06T08:56:24.785Z,98944.30
2023-11-06T08:58:52.750Z,98951.13
2023-11-06T09:01:20.709Z,98952.80
2023-11-06T09:03:49.271Z,98956.92
2023-11-06T09:06:19.196Z,98960.71
2023-11-06T09:08:47.663Z,98965.02
2023-11-06T09:11:15.689Z,98965.54
2023-11-06T09:13:43.699Z,98967.98
2023-11-06T09:16:12.417Z,98965.65
2023-11-06T09:18:41.107Z,98972.69
2023-11-06T09:21:14.519Z,98974.51
2023-11-06T09:23:42.859Z,98980.52
2023-11-06T09:26:12.326Z,98980.21
2023-11-06T09:28:40.660Z,98985.58
2023-11-06T09:31:08.895Z,98992.65
2023-11-06T09:33:37.815Z,98998.37
2023-11-06T09:36:10.221Z,99006.30
2023-11-06T09:38:38.235Z,99010.94
2023-11-06T09:41:06.816Z,99009.20
2023-11-06T09:43:35.051Z,99013.42
2023-11-06T09:46:09.296Z,99011.64
2023-11-06T09:48:40.070Z,99017.54
2023-11-06T09:51:14.583Z,99020.08
2023-11-06T09:53:47.053Z,99027.99
2023-11-06T09:56:15.878Z,99031.67
2023-11-06T09:58:44.815Z,99032.34
2023-11-06T10:01:13.371Z,99037.39
2023-11-06T10:03:44.861Z,99041.16
2023-11-06T10:06:13.098Z,99037.60
2023-11-06T10:08:41.630Z,99042.30
2023-11-06T10:11:10.014Z,99045.62
2023-11-06T10:13:54.945Z,99046.40
2023-11-06T10:16:25.013Z,99054.06
2023-11-06T10:19:14.097Z,99053.58
2023-11-06T10:21:43.458Z,99060.65
2023-11-06T10:24:12.993Z,99061.23
2023-11-06T10:26:41.066Z,99062.10
2023-11-06T10:29:18.020Z,99066.31
2023-11-06T10:31:49.503Z,99050.42
2023-11-06T10:34:27.250Z,99068.08
2023-11-06T10:37:14.814Z,99065.74
2023-11-06T10:39:53.409Z,99067.48
2023-11-06T10:42:22.789Z,99067.11
2023-11-06T10:44:59.775Z,99072.94
2023-11-06T10:47:34.652Z,99073.88
2023-11-06T10:50:13.419Z,99074.64
2023-11-06T10:52:45.791Z,99076.77
2023-11-06T10:55:23.080Z,99082.76
2023-11-06T10:57:59.861Z,99084.69
2023-11-06T11:00:30.774Z,99088.08
2023-11-06T11:03:02.997Z,99090.51
2023-11-06T11:05:36.051Z,99092.59
2023-11-06T11:08:05.513Z,99095.98
2023-11-06T11:10:33.847Z,99098.45
2023-11-06T11:13:04.766Z,99100.55
2023-11-06T11:15:35.722Z,99106.67
2023-11-06T11:18:15.412Z,99110.96
2023-11-06T11:21:04.185Z,99110.85
2023-11-06T11:23:43.364Z,99108.96
2023-11-06T11:26:13.711Z,99115.69
2023-11-06T11:29:01.444Z,99113.59
2023-11-06T11:31:48.723Z,99118.13
2023-11-06T11:34:29.073Z,99120.48
2023-11-06T11:36:59.333Z,99120.33
2023-11-06T11:39:30.401Z,99130.91
2023-11-06T11:42:01.471Z,99132.42
2023-11-06T11:44:29.421Z,99136.13
2023-11-06T11:47:01.751Z,99140.55
2023-11-06T11:49:49.481Z,99143.27
2023-11-06T11:52:39.959Z,99148.24
2023-11-06T11:55:41.411Z,99153.42
2023-11-06T11:58:15.371Z,99161.52
2023-11-06T12:00:44.843Z,99170.05
2023-11-06T12:03:21.078Z,99170.84
2023-11-06T12:05:58.054Z,99174.44
2023-11-06T12:08:30.098Z,99172.60
2023-11-06T12:11:09.602Z,99173.48
2023-11-06T12:13:38.003Z,99174.75
2023-11-06T12:16:07.063Z,99173.56
2023-11-06T12:18:36.308Z,99178.61
2023-11-06T12:21:04.679Z,99182.54
2023-11-06T12:23:34.784Z,99188.02
2023-11-06T12:26:16.159Z,99183.78
2023-11-06T12:28:49.966Z,99186.31
2023-11-06T12:31:20.492Z,99187.48
2023-11-06T12:33:48.755Z,99187.91
2023-11-06T12:36:33.359Z,99186.70
2023-11-06T12:39:02.238Z,99187.36
2023-11-06T12:41:32.851Z,99192.33
2023-11-06T12:44:08.947Z,99194.83
2023-11-06T12:47:01.294Z,99201.28
2023-11-06T12:49:51.563Z,99213.80
2023-11-06T12:52:23.624Z,99216.46
2023-11-06T12:55:16.590Z,99217.28
2023-11-06T12:57:45.527Z,99227.17
2023-11-06T13:00:22.424Z,99228.08
2023-11-06T13:02:53.117Z,99232.27
2023-11-06T13:05:21.538Z,99242.63
2023-11-06T13:07:52.601Z,99234.65
2023-11-06T13:10:22.365Z,99239.14
2023-11-06T13:12:50.278Z,99237.83
2023-11-06T13:15:20.229Z,99245.80
2023-11-06T13:17:50.707Z,99247.83
2023-11-06T13:20:26.208Z,99254.04
2023-11-06T13:22:58.721Z,99256.23
2023-11-06T13:25:28.111Z,99265.86
2023-11-06T13:27:57.726Z,99274.31
2023-11-06T13:30:27.566Z,99273.61
2023-11-06T13:32:56.208Z,99279.66
2023-11-06T13:35:24.381Z,99279.63
2023-11-06T13:37:53.349Z,99280.34
2023-11-06T13:40:21.320Z,99280.23
2023-11-06T13:42:54.374Z,99283.66
2023-11-06T13:45:29.103Z,99284.98
2023-11-06T13:48:10.764Z,99289.07
2023-11-06T13:50:49.583Z,99291.99
2023-11-06T13:53:24.038Z,99293.46
2023-11-06T13:56:16.657Z,99297.55
2023-11-06T13:58:49.744Z,99298.21
2023-11-06T14:01:22.634Z,99301.78
2023-11-06T14:03:52.448Z,99302.23
2023-11-06T14:06:22.270Z,99305.88
2023-11-06T14:08:55.698Z,99310.08
2023-11-06T14:11:24.652Z,99311.58
2023-11-06T14:13:55.941Z,99321.05
2023-11-06T14:16:24.309Z,99324.19
2023-11-06T14:18:52.329Z,99331.05
2023-11-06T14:21:20.516Z,99332.66
2023-11-06T14:23:48.480Z,99331.58
2023-11-06T14:26:17.397Z,99335.09
2023-11-06T14:28:45.530Z,99339.12
2023-11-06T14:31:13.419Z,99343.38
2023-11-06T14:33:41.406Z,99339.20
2023-11-06T14:36:10.054Z,99351.83
2023-11-06T14:38:38.070Z,99352.73
2023-11-06T14:41:06.164Z,99355.91
2023-11-06T14:43:34.071Z,99355.77
2023-11-06T14:46:02.236Z,99362.11
2023-11-06T14:48:30.397Z,99366.61
2023-11-06T14:50:59.554Z,99369.55
2023-11-06T14:53:37.231Z,99371.20
2023-11-06T14:56:17.705Z,99373.04
2023-11-06T14:58:45.799Z,99371.83
2023-11-06T15:01:14.465Z,99377.48
2023-11-06T15:03:43.101Z,99380.55
2023-11-06T15:06:11.840Z,99384.84
2023-11-06T15:08:42.297Z,99381.69
2023-11-06T15:11:10.894Z,99380.85
2023-11-06T15:13:40.035Z,99386.09
2023-11-06T15:16:08.137Z,99391.27
2023-11-06T15:18:36.298Z,99396.98
2023-11-06T15:21:05.493Z,99400.14
2023-11-06T15:23:33.573Z,99407.06
2023-11-06T15:26:04.428Z,99410.13
2023-11-06T15:28:32.924Z,99415.48
2023-11-06T15:31:01.217Z,99416.98
2023-11-06T15:33:29.775Z,99416.95
2023-11-06T15:35:58.071Z,99420.35
2023-11-06T15:38:26.260Z,99426.30
2023-11-06T15:40:56.080Z,99434.21
2023-11-06T15:43:23.983Z,99437.25
2023-11-06T15:45:52.839Z,99438.06
2023-11-06T15:48:20.947Z,99442.06
2023-11-06T15:50:49.514Z,99448.45
2023-11-06T15:53:17.877Z,99461.86
2023-11-06T15:55:46.489Z,99461.95
2023-11-06T15:58:15.781Z,99463.94
2023-11-06T16:00:44.217Z,99472.77
2023-11-06T16:03:13.751Z,99470.29
2023-11-06T16:05:42.239Z,99472.33
2023-11-06T16:08:10.184Z,99478.02
2023-11-06T16:10:38.439Z,99482.79
2023-11-06T16:13:06.620Z,99486.99
2023-11-06T16:15:34.817Z,99489.77
2023-11-06T16:18:03.012Z,99494.27
2023-11-06T16:20:31.390Z,99504.17
2023-11-06T16:23:08.794Z,99504.52
2023-11-06T16:25:36.994Z,99504.55
2023-11-06T16:28:05.485Z,99508.84
2023-11-06T16:30:34.728Z,99508.80
2023-11-06T16:33:02.741Z,99509.29
2023-11-06T16:35:32.173Z,99514.52
2023-11-06T16:38:00.115Z,99522.88
2023-11-06T16:40:28.186Z,99522.23
2023-11-06T16:42:56.044Z,99519.70
2023-11-06T16:45:24.685Z,99522.07
2023-11-06T16:47:55.648Z,99524.51
2023-11-06T16:50:27.355Z,99524.71
2023-11-06T16:52:55.398Z,99521.19
2023-11-06T16:55:23.306Z,99526.88
2023-11-06T16:57:51.573Z,99525.88
2023-11-06T17:00:19.694Z,99529.98
2023-11-06T17:02:47.813Z,99529.98
2023-11-06T17:05:15.960Z,99533.40
2023-11-06T17:07:44.112Z,99535.33
2023-11-06T17:10:13.519Z,99533.40
2023-11-06T17:12:41.538Z,99535.38
2023-11-06T17:15:11.383Z,99531.42
2023-11-06T17:17:40.016Z,99536.31
2023-11-06T17:20:12.549Z,99538.19
2023-11-06T17:22:41.081Z,99539.30
2023-11-06T17:25:10.704Z,99537.10
2023-11-06T17:27:38.829Z,99540.01
2023-11-06T17:30:10.097Z,99539.41
2023-11-06T17:32:38.124Z,99546.77
2023-11-06T17:35:07.555Z,99542.35
2023-11-06T17:37:35.680Z,99542.64
2023-11-06T17:40:04.206Z,99543.89
2023-11-06T17:42:32.208Z,99547.17
2023-11-06T17:45:00.777Z,99548.38
2023-11-06T17:47:30.971Z,99547.60
2023-11-06T17:49:59.218Z,99552.23
2023-11-06T17:52:27.894Z,99558.83
2023-11-06T17:54:56.593Z,99561.18
2023-11-06T17:57:24.621Z,99563.74
2023-11-06T17:59:52.565Z,99563.20
2023-11-06T18:02:21.477Z,99568.83
2023-11-06T18:04:51.556Z,99572.07
2023-11-06T18:07:19.783Z,99573.91
2023-11-06T18:09:47.758Z,99576.84
2023-11-06T18:12:15.653Z,99580.54
2023-11-06T18:14:43.906Z,99585.44
2023-11-06T18:17:11.938Z,99588.86
2023-11-06T18:19:39.901Z,99590.41
2023-11-06T18:22:07.983Z,99591.52
2023-11-06T18:24:35.896Z,99592.98
2023-11-06T18:27:04.470Z,99599.86
2023-11-06T18:29:32.699Z,99600.59
2023-11-06T18:32:00.689Z,99602.60
2023-11-06T18:34:28.721Z,99606.61
2023-11-06T18:36:56.578Z,99607.38
2023-11-06T18:39:24.962Z,99610.20
2023-11-06T18:41:53.301Z,99615.31
2023-11-06T18:44:23.807Z,99617.85
2023-11-06T18:46:51.762Z,99620.69
2023-11-06T18:49:19.724Z,99624.60
2023-11-06T18:51:47.593Z,99628.88
2023-11-06T18:54:16.464Z,99630.92
2023-11-06T18:56:44.903Z,99632.30
2023-11-06T18:59:12.826Z,99640.25
2023-11-06T19:01:42.468Z,99638.42
2023-11-06T19:04:13.004Z,99637.23
2023-11-06T19:06:41.105Z,99643.52
2023-11-06T19:09:09.265Z,99643.04
2023-11-06T19:11:38.828Z,99647.63
2023-11-06T19:14:06.820Z,99647.04
2023-11-06T19:16:34.779Z,99647.84
2023-11-06T19:19:03.114Z,99649.92
2023-11-06T19:21:31.299Z,99652.29
2023-11-06T19:23:59.481Z,99654.84
2023-11-06T19:26:27.514Z,99657.83
2023-11-06T19:28:55.475Z,99655.70
2023-11-06T19:31:24.263Z,99658.13
2023-11-06T19:33:52.344Z,99654.04
2023-11-06T19:36:20.459Z,99667.56
2023-11-06T19:38:49.110Z,99665.58
2023-11-06T19:41:17.245Z,99665.46
2023-11-06T19:43:45.308Z,99665.91
2023-11-06T19:46:15.215Z,99670.25
2023-11-06T19:48:43.970Z,99667.76
2023-11-06T19:51:13.449Z,99668.36
2023-11-06T19:53:42.053Z,99670.97
2023-11-06T19:56:11.171Z,99669.39
2023-11-06T19:58:45.621Z,99677.02
2023-11-06T20:01:15.631Z,99681.98
2023-11-06T20:03:44.054Z,99679.34
2023-11-06T20:06:12.082Z,99684.77
2023-11-06T20:08:40.854Z,99683.86
2023-11-06T20:11:08.722Z,99688.84
2023-11-06T20:13:36.758Z,99691.95
2023-11-06T20:16:06.324Z,99692.33
2023-11-06T20:18:36.790Z,99695.71
2023-11-06T20:21:05.363Z,99698.44
2023-11-06T20:23:33.721Z,99704.21
2023-11-06T20:26:01.975Z,99709.87
2023-11-06T20:28:29.910Z,99709.54
2023-11-06T20:30:58.732Z,99715.79
2023-11-06T20:33:29.389Z,99718.98
2023-11-06T20:36:00.436Z,99720.55
2023-11-06T20:38:28.464Z,99719.81
2023-11-06T20:40:56.461Z,99717.45
2023-11-06T20:43:25.021Z,99722.13
2023-11-06T20:45:52.954Z,99723.02
2023-11-06T20:48:21.064Z,99724.31
2023-11-06T20:50:49.158Z,99721.12
2023-11-06T20:53:19.296Z,99729.41
2023-11-06T20:55:47.613Z,99731.15
2023-11-06T20:58:15.646Z,99728.96
2023-11-06T21:00:44.117Z,99733.02
2023-11-06T21:03:12.631Z,99734.07
2023-11-06T21:05:41.030Z,99738.22
2023-11-06T21:08:09.128Z,99739.83
2023-11-06T21:10:38.038Z,99740.49
2023-11-06T21:13:05.942Z,99744.08
2023-11-06T21:15:35.945Z,99746.36
2023-11-06T21:18:04.191Z,99746.16
2023-11-06T21:20:32.286Z,99748.77
2023-11-06T21:23:00.350Z,99751.84
2023-11-06T21:25:28.716Z,99749.16
2023-11-06T21:27:56.590Z,99752.13
2023-11-06T21:30:27.569Z,99754.60
2023-11-06T21:32:55.636Z,99758.30
2023-11-06T21:35:23.613Z,99755.21
2023-11-06T21:37:52.129Z,99756.59
2023-11-06T21:40:20.672Z,99755.89
2023-11-06T21:42:49.010Z,99753.88
2023-11-06T21:45:17.300Z,99754.70
2023-11-06T21:47:45.417Z,99753.02
2023-11-06T21:50:13.553Z,99750.66
2023-11-06T21:52:41.505Z,99748.48
2023-11-06T21:55:10.326Z,99748.61
2023-11-06T21:57:40.535Z,99750.29
2023-11-06T22:00:11.436Z,99752.94
2023-11-06T22:02:44.817Z,99750.38
2023-11-06T22:05:21.774Z,99752.27
2023-11-06T22:07:50.755Z,99754.36
2023-11-06T22:10:24.703Z,99755.85
2023-11-06T22:12:55.088Z,99754.90
2023-11-06T22:15:23.167Z,99756.92
2023-11-06T22:17:51.241Z,99758.85
2023-11-06T22:20:19.645Z,99761.70
2023-11-06T22:22:47.832Z,99766.08
2023-11-06T22:25:15.829Z,99761.37
2023-11-06T22:27:43.820Z,99762.98
2023-11-06T22:30:12.139Z,99764.94
2023-11-06T22:32:40.320Z,99765.92
2023-11-06T22:35:10.332Z,99769.42
2023-11-06T22:37:39.185Z,99769.09
2023-11-06T22:40:08.278Z,99765.45
2023-11-06T22:42:36.203Z,99767.92
2023-11-06T22:45:05.138Z,99769.05
2023-11-06T22:47:33.109Z,99764.53
2023-11-06T22:50:01.064Z,99762.84
2023-11-06T22:52:29.067Z,99766.25
2023-11-06T22:54:56.992Z,99768.02
2023-11-06T22:57:24.892Z,99770.11
2023-11-06T22:59:52.820Z,99766.73
2023-11-06T23:02:20.688Z,99771.22
2023-11-06T23:04:48.760Z,99769.23
2023-11-06T23:07:17.562Z,99772.55
2023-11-06T23:09:45.442Z,99779.91
2023-11-06T23:12:13.420Z,99777.10
2023-11-06T23:14:41.375Z,99778.60
2023-11-06T23:17:09.361Z,99775.84
2023-11-06T23:19:37.315Z,99776.05
2023-11-06T23:22:05.183Z,99781.40
2023-11-06T23:24:33.550Z,99783.08
2023-11-06T23:27:02.148Z,99783.30
2023-11-06T23:29:30.193Z,99783.98
2023-11-06T23:31:58.221Z,99787.27
2023-11-06T23:34:26.151Z,99794.05
2023-11-06T23:36:54.110Z,99797.84
2023-11-06T23:39:22.172Z,99798.17
2023-11-06T23:41:50.242Z,99799.77
2023-11-06T23:44:18.202Z,99800.11
2023-11-06T23:46:46.127Z,99802.15
2023-11-06T23:49:14.056Z,99807.77
2023-11-06T23:51:42.626Z,99806.81
2023-11-06T23:54:12.039Z,99811.23
2023-11-06T23:56:42.309Z,99818.23
2023-11-06T23:59:10.304Z,99822.09
